createdAt,value
2017-09-01T00:01:22.867Z,90.00
2017-09-01T00:03:53.450Z,89.80
2017-09-01T00:06:25.183Z,89.70
2017-09-01T00:08:54.526Z,89.70
2017-09-01T00:11:27.310Z,89.80
2017-09-01T00:13:55.978Z,89.80
2017-09-01T00:16:25.028Z,90.30
2017-09-01T00:18:53.101Z,90.20
2017-09-01T00:21:21.681Z,90.10
2017-09-01T00:23:49.481Z,90.20
2017-09-01T00:26:18.645Z,90.20
2017-09-01T00:28:47.192Z,90.30
2017-09-01T00:31:16.493Z,90.20
2017-09-01T00:33:44.873Z,90.20
2017-09-01T00:36:20.857Z,90.00
2017-09-01T00:38:49.274Z,90.00
2017-09-01T00:41:17.014Z,90.10
2017-09-01T00:43:45.666Z,90.40
2017-09-01T00:46:13.430Z,90.40
2017-09-01T00:48:43.566Z,90.40
2017-09-01T00:51:11.564Z,90.10
2017-09-01T00:53:41.555Z,89.80
2017-09-01T00:56:13.143Z,89.60
2017-09-01T00:58:41.192Z,89.70
2017-09-01T01:01:12.830Z,89.80
2017-09-01T01:03:40.560Z,89.70
2017-09-01T01:06:08.986Z,89.40
2017-09-01T01:08:37.691Z,89.60
2017-09-01T01:11:06.338Z,89.40
2017-09-01T01:13:34.247Z,89.30
2017-09-01T01:16:03.950Z,89.60
2017-09-01T01:18:32.506Z,90.20
2017-09-01T01:21:00.879Z,90.10
2017-09-01T01:23:30.105Z,90.00
2017-09-01T01:25:57.905Z,89.70
2017-09-01T01:28:26.585Z,89.90
2017-09-01T01:30:54.355Z,90.50
2017-09-01T01:33:23.229Z,90.00
2017-09-01T01:35:51.032Z,89.70
2017-09-01T01:38:18.809Z,89.00
2017-09-01T01:40:47.492Z,89.00
2017-09-01T01:43:15.252Z,90.10
2017-09-01T01:45:45.048Z,90.40
2017-09-01T01:48:14.485Z,90.40
2017-09-01T01:50:42.284Z,90.00
2017-09-01T01:53:12.795Z,89.80
2017-09-01T01:55:41.330Z,89.50
2017-09-01T01:58:10.031Z,89.30
2017-09-01T02:00:38.496Z,89.90
2017-09-01T02:03:06.414Z,90.10
2017-09-01T02:05:34.255Z,90.10
2017-09-01T02:08:04.117Z,89.90
2017-09-01T02:10:32.132Z,89.80
2017-09-01T02:12:59.872Z,89.90
2017-09-01T02:15:29.891Z,89.80
2017-09-01T02:17:57.636Z,89.90
2017-09-01T02:20:27.763Z,89.70
2017-09-01T02:22:55.603Z,89.90
2017-09-01T02:25:23.376Z,89.70
2017-09-01T02:27:51.181Z,90.00
2017-09-01T02:30:18.958Z,90.10
2017-09-01T02:32:47.743Z,90.70
2017-09-01T02:35:15.526Z,91.00
2017-09-01T02:37:43.325Z,90.70
2017-09-01T02:40:11.114Z,90.50
2017-09-01T02:42:38.891Z,90.10
2017-09-01T02:45:06.679Z,90.00
2017-09-01T02:47:34.459Z,90.00
2017-09-01T02:50:02.263Z,90.00
2017-09-01T02:52:31.067Z,89.80
2017-09-01T02:54:58.848Z,89.80
2017-09-01T02:57:27.490Z,90.00
2017-09-01T02:59:55.253Z,90.00
2017-09-01T03:02:23.040Z,89.70
2017-09-01T03:04:51.483Z,89.70
2017-09-01T03:07:19.265Z,89.70
2017-09-01T03:09:47.062Z,89.60
2017-09-01T03:12:14.860Z,90.00
2017-09-01T03:14:42.663Z,89.50
2017-09-01T03:17:10.440Z,89.20
2017-09-01T03:19:38.503Z,89.90
2017-09-01T03:22:06.935Z,89.80
2017-09-01T03:24:34.743Z,89.90
2017-09-01T03:27:02.530Z,90.30
2017-09-01T03:29:30.351Z,90.40
2017-09-01T03:34:32.050Z,90.70
2017-09-01T03:36:59.868Z,91.20
2017-09-01T03:39:28.409Z,91.10
2017-09-01T03:41:56.282Z,90.70
2017-09-01T03:44:24.866Z,90.70
2017-09-01T03:46:52.642Z,90.90
2017-09-01T03:49:20.433Z,90.30
2017-09-01T03:51:48.225Z,90.10
2017-09-01T03:54:16.007Z,89.60
2017-09-01T03:56:43.799Z,89.70
2017-09-01T03:59:13.326Z,89.20
2017-09-01T04:01:41.102Z,89.10
2017-09-01T04:04:08.842Z,89.40
2017-09-01T04:06:36.623Z,89.60
2017-09-01T04:09:04.402Z,89.50
2017-09-01T04:11:32.194Z,89.20
2017-09-01T04:13:59.970Z,89.40
2017-09-01T04:16:27.733Z,89.90
2017-09-01T04:18:55.527Z,90.50
2017-09-01T04:21:24.055Z,90.10
2017-09-01T04:23:51.803Z,90.10
2017-09-01T04:26:19.578Z,89.50
2017-09-01T04:28:47.317Z,89.90
2017-09-01T04:31:15.050Z,90.00
2017-09-01T04:33:43.749Z,89.90
2017-09-01T04:36:11.463Z,89.70
2017-09-01T04:38:39.214Z,89.70
2017-09-01T04:41:06.986Z,90.00
2017-09-01T04:43:34.755Z,90.00
2017-09-01T04:46:02.526Z,90.10
2017-09-01T04:48:30.922Z,90.20
2017-09-01T04:50:58.638Z,90.10
2017-09-01T04:53:26.420Z,90.00
2017-09-01T04:55:54.209Z,89.80
2017-09-01T04:58:21.942Z,89.80
2017-09-01T05:00:50.679Z,89.80
2017-09-01T05:03:18.443Z,89.90
2017-09-01T05:05:46.175Z,90.00
2017-09-01T05:08:25.917Z,90.10
2017-09-01T05:10:53.664Z,89.80
2017-09-01T05:13:21.409Z,89.90
2017-09-01T05:15:49.481Z,90.00
2017-09-01T05:18:17.280Z,90.40
2017-09-01T05:20:45.013Z,90.30
2017-09-01T05:23:13.583Z,90.20
2017-09-01T05:25:41.330Z,90.10
2017-09-01T05:28:09.077Z,90.10
2017-09-01T05:30:36.800Z,90.40
2017-09-01T05:33:04.562Z,90.60
2017-09-01T05:35:32.340Z,91.30
2017-09-01T05:38:00.093Z,91.20
2017-09-01T05:40:28.571Z,91.10
2017-09-01T05:42:56.348Z,90.90
2017-09-01T05:45:24.066Z,90.50
2017-09-01T05:47:51.797Z,90.60
2017-09-01T05:50:19.550Z,90.70
2017-09-01T05:52:47.645Z,90.60
2017-09-01T05:55:15.390Z,90.40
2017-09-01T05:57:43.110Z,90.20
2017-09-01T06:00:10.902Z,90.00
2017-09-01T06:02:38.606Z,89.80
2017-09-01T06:05:06.319Z,89.70
2017-09-01T06:07:34.847Z,89.80
2017-09-01T06:10:02.622Z,90.00
2017-09-01T06:12:30.354Z,90.30
2017-09-01T06:14:58.865Z,90.50
2017-09-01T06:17:26.575Z,90.70
2017-09-01T06:19:54.897Z,90.80
2017-09-01T06:22:22.614Z,90.60
2017-09-01T06:24:50.384Z,90.30
2017-09-01T06:27:18.110Z,90.30
2017-09-01T06:29:47.578Z,90.10
2017-09-01T06:32:15.927Z,89.70
2017-09-01T06:34:43.682Z,89.20
2017-09-01T06:37:12.100Z,88.50
2017-09-01T06:39:41.698Z,87.90
2017-09-01T06:42:10.082Z,86.70
2017-09-01T06:44:37.797Z,85.90
2017-09-01T06:47:05.522Z,85.40
2017-09-01T06:49:33.277Z,84.60
2017-09-01T06:52:01.907Z,84.10
2017-09-01T06:54:30.181Z,83.40
2017-09-01T06:56:59.121Z,83.10
2017-09-01T06:59:26.839Z,82.70
2017-09-01T07:01:58.587Z,82.70
2017-09-01T07:04:26.332Z,82.20
2017-09-01T07:07:00.571Z,81.10
2017-09-01T07:09:29.286Z,80.30
2017-09-01T07:11:57.523Z,80.10
2017-09-01T07:14:25.242Z,79.40
2017-09-01T07:16:52.995Z,79.10
2017-09-01T07:21:54.370Z,79.20
2017-09-01T07:24:22.094Z,79.00
2017-09-01T07:26:49.828Z,77.90
2017-09-01T07:29:17.566Z,77.60
2017-09-01T07:31:45.280Z,78.50
2017-09-01T07:34:12.989Z,78.30
2017-09-01T07:36:40.806Z,78.00
2017-09-01T07:39:08.516Z,78.60
2017-09-01T07:41:36.236Z,78.90
2017-09-01T07:44:03.999Z,79.20
2017-09-01T07:46:31.711Z,77.30
2017-09-01T07:48:59.465Z,78.00
2017-09-01T07:51:27.176Z,79.60
2017-09-01T07:53:54.891Z,78.70
2017-09-01T07:56:22.612Z,77.90
2017-09-01T07:58:50.329Z,78.30
2017-09-01T08:01:18.050Z,77.80
2017-09-01T08:03:45.818Z,77.60
2017-09-01T08:06:13.566Z,78.90
2017-09-01T08:08:41.440Z,77.00
2017-09-01T08:11:09.171Z,77.30
2017-09-01T08:13:36.896Z,76.50
2017-09-01T08:16:04.617Z,77.40
2017-09-01T08:18:32.337Z,78.80
2017-09-01T08:21:00.066Z,77.90
2017-09-01T08:23:27.797Z,77.10
2017-09-01T08:25:55.530Z,76.90
2017-09-01T08:28:23.266Z,77.20
2017-09-01T08:30:50.981Z,76.30
2017-09-01T08:33:18.698Z,76.00
2017-09-01T08:35:46.420Z,75.30
2017-09-01T08:38:14.140Z,76.50
2017-09-01T08:40:41.938Z,76.50
2017-09-01T08:43:09.675Z,76.30
2017-09-01T08:45:37.394Z,76.00
2017-09-01T08:48:05.121Z,74.50
2017-09-01T08:50:32.847Z,74.40
2017-09-01T08:53:00.580Z,74.50
2017-09-01T08:55:28.321Z,73.20
2017-09-01T08:57:56.043Z,72.90
2017-09-01T09:00:23.757Z,72.80
2017-09-01T09:02:51.459Z,72.10
2017-09-01T09:05:19.185Z,72.40
2017-09-01T09:07:46.902Z,72.50
2017-09-01T09:10:14.613Z,68.40
2017-09-01T09:12:42.345Z,71.00
2017-09-01T09:15:10.078Z,68.70
2017-09-01T09:17:37.791Z,68.60
2017-09-01T09:20:05.514Z,68.70
2017-09-01T09:22:33.250Z,68.90
2017-09-01T09:25:00.961Z,67.40
2017-09-01T09:27:28.675Z,67.40
2017-09-01T09:29:59.419Z,65.70
2017-09-01T09:32:27.136Z,69.10
2017-09-01T09:34:54.857Z,67.30
2017-09-01T09:37:22.591Z,66.60
2017-09-01T09:39:50.312Z,64.60
2017-09-01T09:42:18.790Z,64.50
2017-09-01T09:44:46.501Z,64.50
2017-09-01T09:47:14.226Z,63.40
2017-09-01T09:49:41.937Z,64.70
2017-09-01T09:52:09.655Z,65.00
2017-09-01T09:54:37.363Z,64.60
2017-09-01T09:57:05.072Z,62.50
2017-09-01T09:59:32.792Z,61.40
2017-09-01T10:02:00.511Z,62.90
2017-09-01T10:04:28.247Z,60.80
2017-09-01T10:06:55.997Z,60.20
2017-09-01T10:09:23.722Z,59.00
2017-09-01T10:11:51.484Z,58.80
2017-09-01T10:14:19.260Z,59.30
2017-09-01T10:16:46.999Z,57.90
2017-09-01T10:19:15.492Z,59.50
2017-09-01T10:21:43.226Z,59.50
2017-09-01T10:24:10.963Z,59.10
2017-09-01T10:26:38.749Z,58.80
2017-09-01T10:29:06.482Z,58.80
2017-09-01T10:31:34.198Z,57.70
2017-09-01T10:34:01.936Z,57.50
2017-09-01T10:36:29.661Z,58.50
2017-09-01T10:38:57.418Z,56.80
2017-09-01T10:41:25.163Z,57.40
2017-09-01T10:43:52.878Z,58.30
2017-09-01T10:46:20.599Z,57.70
2017-09-01T10:49:00.177Z,56.30
2017-09-01T10:51:39.815Z,58.50
2017-09-01T10:54:19.379Z,58.10
2017-09-01T10:56:59.043Z,55.40
2017-09-01T10:59:26.766Z,56.00
2017-09-01T11:01:54.479Z,55.40
2017-09-01T11:04:22.205Z,54.60
2017-09-01T11:06:49.972Z,54.70
2017-09-01T11:09:17.737Z,53.20
2017-09-01T11:11:45.454Z,52.00
2017-09-01T11:14:13.267Z,52.30
2017-09-01T11:16:40.987Z,52.90
2017-09-01T11:19:14.321Z,47.30
2017-09-01T11:21:47.753Z,53.10
2017-09-01T11:24:21.206Z,52.10
2017-09-01T11:26:48.914Z,53.40
2017-09-01T11:29:16.646Z,51.80
2017-09-01T11:31:44.358Z,50.30
2017-09-01T11:34:12.126Z,49.80
2017-09-01T11:36:39.837Z,48.90
2017-09-01T11:39:07.550Z,47.70
2017-09-01T11:41:35.272Z,46.70
2017-09-01T11:44:03.008Z,44.30
2017-09-01T11:46:30.735Z,44.60
2017-09-01T11:48:59.210Z,43.70
2017-09-01T11:51:26.973Z,43.60
2017-09-01T11:53:54.687Z,43.30
2017-09-01T11:56:22.441Z,42.60
2017-09-01T11:58:50.164Z,44.50
2017-09-01T12:01:17.901Z,45.90
2017-09-01T12:03:45.618Z,42.30
2017-09-01T12:06:13.316Z,44.80
2017-09-01T12:08:41.037Z,46.00
2017-09-01T12:11:08.760Z,44.80
2017-09-01T12:13:36.483Z,41.30
2017-09-01T12:16:04.183Z,41.10
2017-09-01T12:18:31.896Z,42.90
2017-09-01T12:20:59.593Z,41.00
2017-09-01T12:23:27.300Z,41.40
2017-09-01T12:25:55.010Z,41.90
2017-09-01T12:28:22.753Z,42.10
2017-09-01T12:30:50.471Z,39.70
2017-09-01T12:33:18.202Z,42.00
2017-09-01T12:35:45.921Z,42.20
2017-09-01T12:38:13.647Z,41.50
2017-09-01T12:40:41.359Z,40.00
2017-09-01T12:43:09.066Z,41.80
2017-09-01T12:45:36.784Z,41.20
2017-09-01T12:48:04.495Z,38.80
2017-09-01T12:50:32.210Z,38.60
2017-09-01T12:53:00.687Z,38.20
2017-09-01T12:55:28.393Z,38.20
2017-09-01T12:57:56.101Z,37.50
2017-09-01T13:00:23.809Z,37.90
2017-09-01T13:02:51.526Z,37.60
2017-09-01T13:05:19.237Z,35.40
2017-09-01T13:07:46.977Z,37.60
2017-09-01T13:10:15.456Z,37.50
2017-09-01T13:12:43.219Z,37.40
2017-09-01T13:15:10.931Z,37.00
2017-09-01T13:17:38.645Z,37.70
2017-09-01T13:20:06.350Z,34.90
2017-09-01T13:22:34.152Z,36.10
2017-09-01T13:25:01.869Z,36.90
2017-09-01T13:27:29.591Z,36.90
2017-09-01T13:29:57.306Z,36.90
2017-09-01T13:32:25.020Z,36.50
2017-09-01T13:34:52.737Z,34.30
2017-09-01T13:37:20.525Z,35.50
2017-09-01T13:39:48.244Z,33.10
2017-09-01T13:42:15.958Z,36.20
2017-09-01T13:44:43.693Z,36.30
2017-09-01T13:47:11.405Z,35.70
2017-09-01T13:49:39.136Z,38.40
2017-09-01T13:52:06.854Z,37.20
2017-09-01T13:54:34.573Z,37.60
2017-09-01T13:57:02.282Z,35.80
2017-09-01T13:59:30.064Z,33.60
2017-09-01T14:01:57.794Z,32.80
2017-09-01T14:04:25.552Z,36.20
2017-09-01T14:06:53.255Z,37.70
2017-09-01T14:09:20.974Z,37.80
2017-09-01T14:11:48.681Z,37.30
2017-09-01T14:14:16.388Z,37.40
2017-09-01T14:16:44.089Z,38.30
2017-09-01T14:19:11.822Z,36.50
2017-09-01T14:21:39.563Z,39.10
2017-09-01T14:24:07.269Z,36.70
2017-09-01T14:26:34.973Z,38.20
2017-09-01T14:29:02.682Z,37.90
2017-09-01T14:31:30.422Z,37.80
2017-09-01T14:33:58.122Z,37.70
2017-09-01T14:36:25.839Z,37.00
2017-09-01T14:38:53.593Z,39.30
2017-09-01T14:41:21.301Z,38.90
2017-09-01T14:43:49.006Z,39.80
2017-09-01T14:46:16.723Z,41.40
2017-09-01T14:48:44.443Z,41.30
2017-09-01T14:51:12.160Z,40.70
2017-09-01T14:53:39.862Z,44.20
2017-09-01T14:56:07.580Z,39.20
2017-09-01T14:58:35.389Z,38.00
2017-09-01T15:01:03.119Z,43.70
2017-09-01T15:03:30.847Z,42.80
2017-09-01T15:05:58.569Z,39.80
2017-09-01T15:08:26.282Z,41.50
2017-09-01T15:10:53.985Z,42.30
2017-09-01T15:13:21.717Z,44.50
2017-09-01T15:15:50.570Z,44.30
2017-09-01T15:18:20.628Z,44.40
2017-09-01T15:20:49.889Z,41.50
2017-09-01T15:23:19.748Z,43.20
2017-09-01T15:25:47.607Z,44.80
2017-09-01T15:28:15.474Z,45.30
2017-09-01T15:30:43.201Z,42.20
2017-09-01T15:33:10.910Z,44.90
2017-09-01T15:35:38.617Z,46.50
2017-09-01T15:38:06.373Z,48.30
2017-09-01T15:40:34.095Z,49.00
2017-09-01T15:43:01.825Z,45.80
2017-09-01T15:45:29.597Z,45.80
2017-09-01T15:47:57.457Z,46.50
2017-09-01T15:50:25.172Z,47.10
2017-09-01T15:52:52.895Z,45.60
2017-09-01T15:55:20.634Z,47.10
2017-09-01T15:57:48.378Z,47.70
2017-09-01T16:00:16.853Z,48.60
2017-09-01T16:02:44.561Z,49.10
2017-09-01T16:05:13.171Z,47.40
2017-09-01T16:07:40.919Z,47.30
2017-09-01T16:10:08.639Z,47.90
2017-09-01T16:12:36.385Z,47.80
2017-09-01T16:15:04.111Z,49.10
2017-09-01T16:17:31.825Z,49.80
2017-09-01T16:19:59.536Z,49.00
2017-09-01T16:22:27.253Z,50.10
2017-09-01T16:24:54.970Z,51.40
2017-09-01T16:27:22.694Z,50.90
2017-09-01T16:29:50.411Z,50.30
2017-09-01T16:32:18.132Z,52.00
2017-09-01T16:34:45.849Z,51.60
2017-09-01T16:37:13.575Z,52.10
2017-09-01T16:39:41.302Z,50.60
2017-09-01T16:42:09.034Z,51.60
2017-09-01T16:44:36.746Z,52.30
2017-09-01T16:47:04.461Z,54.10
2017-09-01T16:49:32.171Z,52.70
2017-09-01T16:51:59.892Z,53.10
2017-09-01T16:54:27.601Z,54.70
2017-09-01T16:56:55.363Z,53.80
2017-09-01T16:59:28.963Z,55.10
2017-09-01T17:01:56.663Z,55.40
2017-09-01T17:04:24.371Z,54.80
2017-09-01T17:06:52.090Z,55.30
2017-09-01T17:09:19.811Z,58.00
2017-09-01T17:11:47.522Z,57.60
2017-09-01T17:14:15.257Z,58.30
2017-09-01T17:16:42.964Z,58.10
2017-09-01T17:19:10.676Z,57.90
2017-09-01T17:21:39.149Z,62.40
2017-09-01T17:24:06.910Z,61.70
2017-09-01T17:26:34.655Z,62.90
2017-09-01T17:29:02.368Z,64.60
2017-09-01T17:31:30.114Z,65.00
2017-09-01T17:33:57.837Z,65.20
2017-09-01T17:36:25.557Z,65.80
2017-09-01T17:38:53.263Z,67.70
2017-09-01T17:41:20.978Z,68.40
2017-09-01T17:43:48.694Z,68.80
2017-09-01T17:46:16.410Z,69.20
2017-09-01T17:48:44.147Z,69.50
2017-09-01T17:51:11.867Z,69.70
2017-09-01T17:53:39.580Z,69.20
2017-09-01T17:56:07.285Z,68.80
2017-09-01T17:58:34.997Z,69.40
2017-09-01T18:01:02.748Z,69.60
2017-09-01T18:03:30.475Z,69.80
2017-09-01T18:05:58.186Z,69.50
2017-09-01T18:08:25.897Z,69.80
2017-09-01T18:10:53.619Z,70.80
2017-09-01T18:13:21.334Z,70.70
2017-09-01T18:15:49.099Z,70.60
2017-09-01T18:18:16.863Z,71.20
2017-09-01T18:20:44.563Z,72.10
2017-09-01T18:23:12.286Z,72.20
2017-09-01T18:25:40.050Z,72.60
2017-09-01T18:28:07.762Z,71.90
2017-09-01T18:30:35.475Z,71.10
2017-09-01T18:33:03.186Z,69.50
2017-09-01T18:35:30.900Z,69.50
2017-09-01T18:37:58.608Z,70.30
2017-09-01T18:40:26.351Z,71.10
2017-09-01T18:42:54.070Z,72.10
2017-09-01T18:45:21.783Z,72.70
2017-09-01T18:47:49.490Z,73.80
2017-09-01T18:50:17.201Z,74.30
2017-09-01T18:52:44.954Z,74.80
2017-09-01T18:55:12.662Z,74.90
2017-09-01T18:57:40.697Z,75.10
2017-09-01T19:00:08.418Z,75.50
2017-09-01T19:02:36.144Z,75.60
2017-09-01T19:05:03.877Z,76.00
2017-09-01T19:07:31.607Z,73.00
2017-09-01T19:09:59.348Z,73.00
2017-09-01T19:12:27.074Z,72.90
2017-09-01T19:14:54.794Z,72.20
2017-09-01T19:17:23.325Z,72.50
2017-09-01T19:19:51.038Z,72.50
2017-09-01T19:22:20.410Z,72.50
2017-09-01T19:24:48.171Z,72.30
2017-09-01T19:27:15.922Z,72.20
2017-09-01T19:29:43.632Z,71.90
2017-09-01T19:32:11.342Z,72.10
2017-09-01T19:34:39.057Z,72.50
2017-09-01T19:37:06.775Z,73.60
2017-09-01T19:39:34.491Z,74.00
2017-09-01T19:42:02.207Z,73.70
2017-09-01T19:44:29.936Z,73.40
2017-09-01T19:46:57.739Z,73.20
2017-09-01T19:49:25.442Z,73.90
2017-09-01T19:51:53.150Z,74.40
2017-09-01T19:54:20.958Z,75.50
2017-09-01T19:56:48.675Z,76.30
2017-09-01T19:59:16.381Z,75.80
2017-09-01T20:01:44.094Z,75.80
2017-09-01T20:04:11.809Z,76.00
2017-09-01T20:06:39.522Z,76.10
2017-09-01T20:09:07.219Z,76.30
2017-09-01T20:11:34.926Z,75.90
2017-09-01T20:14:02.638Z,75.10
2017-09-01T20:16:30.343Z,74.90
2017-09-01T20:18:58.053Z,74.90
2017-09-01T20:21:25.766Z,75.30
2017-09-01T20:23:53.490Z,76.40
2017-09-01T20:26:21.190Z,76.40
2017-09-01T20:28:48.889Z,76.90
2017-09-01T20:31:16.595Z,76.90
2017-09-01T20:33:44.306Z,78.80
2017-09-01T20:36:12.005Z,78.80
2017-09-01T20:38:39.716Z,78.90
2017-09-01T20:41:07.458Z,78.50
2017-09-01T20:43:35.153Z,78.00
2017-09-01T20:46:03.618Z,77.60
2017-09-01T20:48:31.327Z,77.60
2017-09-01T20:50:59.041Z,78.00
2017-09-01T20:53:26.741Z,77.90
2017-09-01T20:55:54.454Z,79.00
2017-09-01T20:58:22.158Z,79.30
2017-09-01T21:00:49.865Z,80.00
2017-09-01T21:03:17.578Z,80.00
2017-09-01T21:05:45.298Z,80.40
2017-09-01T21:08:12.998Z,80.20
2017-09-01T21:10:40.704Z,80.80
2017-09-01T21:13:08.415Z,81.20
2017-09-01T21:15:36.117Z,80.90
2017-09-01T21:18:03.829Z,80.60
2017-09-01T21:20:31.530Z,81.20
2017-09-01T21:22:59.238Z,80.70
2017-09-01T21:25:26.943Z,80.60
2017-09-01T21:27:54.650Z,80.50
2017-09-01T21:30:22.363Z,80.60
2017-09-01T21:32:50.062Z,80.70
2017-09-01T21:35:17.771Z,80.90
2017-09-01T21:37:45.485Z,80.30
2017-09-01T21:40:13.189Z,80.70
2017-09-01T21:42:40.889Z,80.10
2017-09-01T21:45:08.596Z,79.90
2017-09-01T21:47:36.294Z,81.10
2017-09-01T21:50:03.994Z,80.70
2017-09-01T21:52:31.720Z,80.30
2017-09-01T21:54:59.432Z,80.10
2017-09-01T21:57:27.137Z,79.10
2017-09-01T21:59:54.846Z,79.80
2017-09-01T22:02:22.594Z,83.40
2017-09-01T22:04:50.327Z,83.50
2017-09-01T22:07:18.034Z,83.90
2017-09-01T22:09:45.755Z,83.70
2017-09-01T22:12:13.466Z,83.10
2017-09-01T22:14:41.184Z,82.50
2017-09-01T22:17:08.895Z,81.90
2017-09-01T22:19:36.603Z,81.50
2017-09-01T22:22:04.328Z,82.10
2017-09-01T22:24:32.034Z,81.50
2017-09-01T22:26:59.754Z,81.10
2017-09-01T22:29:27.458Z,80.60
2017-09-01T22:31:55.161Z,80.30
2017-09-01T22:34:22.862Z,80.40
2017-09-01T22:36:50.566Z,80.60
2017-09-01T22:39:18.319Z,80.50
2017-09-01T22:41:46.014Z,80.00
2017-09-01T22:44:13.723Z,80.60
2017-09-01T22:46:41.455Z,81.20
2017-09-01T22:49:09.153Z,80.40
2017-09-01T22:51:36.858Z,80.80
2017-09-01T22:54:04.562Z,80.80
2017-09-01T22:56:32.266Z,80.80
2017-09-01T22:58:59.979Z,81.10
2017-09-01T23:01:27.698Z,81.20
2017-09-01T23:03:55.410Z,81.70
2017-09-01T23:06:23.134Z,81.60
2017-09-01T23:08:50.851Z,83.10
2017-09-01T23:11:18.566Z,82.50
2017-09-01T23:13:46.279Z,82.40
2017-09-01T23:16:13.987Z,82.40
2017-09-01T23:18:41.693Z,82.60
2017-09-01T23:21:09.415Z,82.70
2017-09-01T23:23:37.131Z,82.90
2017-09-01T23:26:04.853Z,84.30
2017-09-01T23:28:32.581Z,84.20
2017-09-01T23:31:00.294Z,84.00
2017-09-01T23:33:28.010Z,86.50
2017-09-01T23:35:55.717Z,88.20
2017-09-01T23:38:23.431Z,86.80
2017-09-01T23:40:51.146Z,88.40
2017-09-01T23:43:18.861Z,87.00
2017-09-01T23:45:46.578Z,86.30
2017-09-01T23:48:14.387Z,86.20
2017-09-01T23:50:42.089Z,85.90
2017-09-01T23:53:09.802Z,88.40
2017-09-01T23:55:37.510Z,90.40
2017-09-01T23:58:05.213Z,90.40
